Main page
METAR-TAF:

METAR-TAF

Airports :

RAF Northolt

Northolt, England

latitude: 51-33N, longitude: 000-25W, elevation: 38 m

Current weather observation

The report was made 55 minutes ago, at 04:50 UTC
Wind 8 kt from the West
Temperature 14°C
Humidity 77%
Pressure 1015 hPa
Visibility 10 km or more

METAR: EGWU 170450Z AUTO 27008KT 9999 // NCD 14/10 Q1015

Time: 06:45 (05:45 UTC)

Forecast

The report was made 1 hour and 22 minutes ago, at 04:23 UTC
Forecast valid from 17 at 06 UTC to 17 at 24 UTC
Wind 7 kt from the West/Southwest
Visibility 10 km or more
Few clouds at a height of 3500 ft

TAF: EGWU 170423Z 1706/1724 25007KT 9999 FEW035

Weather observations and forecasts of more than 4000 airports (METAR and TAF reports).

The available stations are represented by yellow and red dots on the map.

Hover mouse over dot to see the name of the station.

Then click to see weather observations and forecasts.

To change the map : click on the green buttons with a black cross to zoom in, on the green button with a dash to zoom out, or on the green arrows for adjacent maps.


METAR-TAF: